Flight Track Log - Related Links

Times and Time Zones

All times are in EDT time to prevent confusion due to time zone crossing. See the AWI3780 flight status page for this flight to view local times or setup timezone preferences in your user account.

Time Position Orientation Groundspeed Altitude Reporting Facility
EDT Latitude Longitude Course Direction KTS MPH feet Rate Location/Type
Thu 03:55:00 PM 44.1782 -73.2554 196° South  Level FlightAware Approximate
Thu 03:55:40 PM 44.4206 -73.2917 187° South 287 330 7,300  Level Boston Center
Thu 03:56:00 PM 44.0823 -73.2938 196° South  Level FlightAware Approximate
Thu 03:56:40 PM 44.3456 -73.3108 190° South 279 321 9,600  Level Boston Center
Thu 03:57:00 PM 43.9864 -73.3322 196° South  Level FlightAware Approximate
Thu 03:57:40 PM 44.2619 -73.3358 192° South 289 333 12,100  Level Boston Center
Thu 03:58:00 PM 43.8905 -73.3702 195° South  Level FlightAware Approximate
Thu 03:58:40 PM 44.1847 -73.3608 193° South 313 360 14,200  Level Boston Center
Thu 03:59:00 PM 43.7941 -73.4058 195° South  Level FlightAware Approximate
Thu 03:59:40 PM 44.0928 -73.3911 193° South 332 382 16,500  Level Boston Center
Thu 04:00:00 PM 43.6977 -73.4414 195° South  Level FlightAware Approximate
Thu 04:00:40 PM 44.0008 -73.4183 192° South 340 391 18,900  Level Boston Center
Thu 04:01:40 PM 43.9153 -73.4458 193° South 328 377 21,500 2,200 Climbing Boston Center
Thu 04:02:40 PM 43.8317 -73.4733 193° South 318 366 23,300 1,700 Climbing Boston Center
Thu 04:03:40 PM 43.7458 -73.4978 192° South 318 366 24,900 1,350 Climbing Boston Center
Thu 04:04:40 PM 43.6581 -73.5247 193° South 318 366 26,000 367 Climbing Boston Center
Thu 04:06:00 PM 43.5325 -73.5852 194° South  Level Estimated
Thu 04:06:40 PM 43.4742 -73.5817 194° South 334 384 26,000  Level Boston Center
Thu 04:07:40 PM 43.3864 -73.6086 193° South 339 390 26,000  Level Boston Center
Thu 04:08:40 PM 43.2944 -73.6381 193° South 339 390 26,000  Level Boston Center
Thu 04:09:40 PM 43.2044 -73.6650 192° South 334 384 26,000  Level Boston Center
Thu 04:10:40 PM 43.1019 -73.6969 193° South 340 391 26,000  Level Boston Center
Thu 04:11:40 PM 43.0122 -73.7264 193° South 340 391 26,000  Level Boston Center
Thu 04:12:40 PM 42.9200 -73.7556 193° South 334 384 26,000  Level Boston Center
Thu 04:13:40 PM 42.8281 -73.7819 192° South 339 390 26,000  Level Boston Center
Thu 04:14:40 PM 42.7400 -73.8169 196° South 339 390 26,000  Level Boston Center
Thu 04:15:40 PM 42.6867 -73.9231 236° Southwest 320 368 26,000  Level Boston Center
Thu 04:16:40 PM 42.6417 -74.0206 238° Southwest 320 368 26,000  Level Boston Center
Thu 04:17:40 PM 42.5900 -74.1322 238° Southwest 333 383 26,000  Level Boston Center
Thu 04:18:40 PM 42.5383 -74.2378 236° Southwest 338 389 26,000  Level Boston Center
Thu 04:19:40 PM 42.4867 -74.3406 236° Southwest 338 389 26,000  Level Boston Center
Thu 04:20:40 PM 42.4347 -74.4431 236° Southwest 338 389 26,000  Level Boston Center
Thu 04:21:40 PM 42.3808 -74.5481 235° Southwest 338 389 26,000  Level Boston Center
Thu 04:22:40 PM 42.3308 -74.6531 237° Southwest 338 389 26,000 -450 Level Boston Center
Thu 04:23:40 PM 42.2767 -74.7606 236° Southwest 343 395 25,100 -1,150 Descending Boston Center
Thu 04:24:40 PM 42.2181 -74.8764 236° Southwest 349 402 23,700 -1,429 Descending Boston Center
Thu 04:26:28 PM 42.0839 -75.0378 222° Southwest 380 437 21,100 -1,527 Descending New York Center
Thu 04:27:29 PM 41.9939 -75.1103 211° Southwest 380 437 19,400 -1,059 Descending New York Center
Thu 04:28:27 PM 41.8953 -75.1928 212° Southwest 385 443 19,000 -203 Descending New York Center
Thu 04:29:27 PM 41.8256 -75.2689 219° Southwest 372 428 19,000  Level New York Center
Thu 04:30:27 PM 41.7775 -75.3825 240° Southwest 355 409 19,000  Level New York Center
Thu 04:31:28 PM 41.7228 -75.5067 239° Southwest 355 409 19,000 -590 Level New York Center
Thu 04:32:29 PM 41.6292 -75.5553 201° Southwest 344 396 17,800 -1,311 Descending New York Center
Thu 04:33:27 PM 41.5319 -75.5900 195° South 375 432 16,400 -1,412 Descending New York Center
Thu 04:34:28 PM 41.4431 -75.6278 198° South 388 447 15,000 -1,623 Descending New York Center
Thu 04:35:29 PM 41.3289 -75.6694 195° South 388 447 13,100 -1,488 Descending New York Center
Thu 04:36:29 PM 41.2156 -75.6889 187° South 372 428 12,000 -559 Descending New York Center
Thu 04:37:27 PM 41.1092 -75.6894 180° South 377 434 12,000  Level New York Center
Thu 04:38:29 PM 41.0050 -75.6872 179° South 384 442 12,000 -500 Level New York Center
Thu 04:39:27 PM 40.9133 -75.6889 181° South 377 434 11,000 -1,017 Descending New York Center
Thu 04:40:27 PM 40.8156 -75.6872 179° South 336 387 10,000 -492 Descending New York Center
Thu 04:41:29 PM 40.7344 -75.6842 178° South 306 352 10,000  Level New York Center
Thu 04:42:27 PM 40.6614 -75.6872 182° South 291 335 10,000  Level New York Center
Thu 04:43:28 PM 40.5828 -75.6733 172° South 291 335 10,000  Level New York Center
Thu 04:44:28 PM 40.5264 -75.5764 127° Southeast 286 329 10,000 -403 Level New York Center
Thu 04:45:27 PM 40.4800 -75.4858 124° Southeast 292 336 9,200 -555 Descending New York Center
Thu 04:46:27 PM 40.4261 -75.4222 138° Southeast 292 336 8,900 -787 Descending New York Center
Thu 04:47:29 PM 40.3533 -75.4200 179° South 260 299 7,600 -1,000 Descending New York Center
Thu 04:48:27 PM 40.2769 -75.4531 198° South 260 299 6,900 -356 Descending New York Center
Thu 04:49:27 PM 40.2328 -75.5125 226° Southwest 246 283 6,900 66 Level New York Center
Thu 04:51:00 PM 40.1582 -75.3794 126° Southeast  Level FlightAware Approximate
Thu 04:51:28 PM 40.1264 -75.5706 126° Southeast 211 243 7,100  Level New York Center
Thu 04:52:29 PM 40.0844 -75.5242 140° Southeast 205 236 6,800 -504 Descending New York Center
Thu 04:53:27 PM 40.0778 -75.4286 95° East 203 234 6,100 -353 Descending New York Center
Thu 04:54:28 PM 40.0686 -75.3467 98° East 223 257 6,100  Level New York Center
Thu 04:55:28 PM 40.0592 -75.2647 99° East 235 270 6,100  Level New York Center
Thu 04:56:29 PM 40.0436 -75.1797 103° East 229 264 6,100  Level New York Center
Thu 04:57:27 PM 40.0256 -75.1081 108° East 223 257 6,100 -143 Level New York Center
Thu 04:58:35 PM 40.0000 -75.0167 110° East 214 246 5,800 -265 Descending Philadelphia TRACON

Login

Don't have an account? Register now (free) for customized features, flight alerts, and more!